createdAt,value
2022-11-22T00:03:15.692Z,-3.30
2022-11-22T00:05:43.096Z,-3.20
2022-11-22T00:08:10.703Z,-3.50
2022-11-22T00:10:38.437Z,-3.30
2022-11-22T00:13:05.787Z,-2.90
2022-11-22T00:18:01.272Z,-2.80
2022-11-22T00:22:58.377Z,-3.00
2022-11-22T00:35:18.139Z,-2.80
2022-11-22T00:50:05.451Z,-3.00
2022-11-22T01:24:36.381Z,-2.90
2022-11-22T01:44:22.163Z,-2.80
2022-11-22T01:46:54.248Z,-2.80
2022-11-22T01:49:29.175Z,-2.80
2022-11-22T01:52:02.573Z,-2.80
2022-11-22T01:54:33.914Z,-2.80
2022-11-22T01:57:08.334Z,-2.90
2022-11-22T01:59:42.126Z,-2.80
2022-11-22T02:04:39.010Z,-2.90
2022-11-22T02:07:14.976Z,-2.90
2022-11-22T02:09:44.094Z,-2.90
2022-11-22T02:12:12.823Z,-2.90
2022-11-22T02:14:41.380Z,-2.90
2022-11-22T02:19:44.253Z,-2.80
2022-11-22T02:22:36.619Z,-2.80
2022-11-22T02:25:22.943Z,-2.40
2022-11-22T02:35:19.605Z,-2.70
2022-11-22T02:37:49.626Z,-2.70
2022-11-22T02:40:18.002Z,-2.70
2022-11-22T02:42:51.752Z,-2.90
2022-11-22T02:45:22.833Z,-2.80
2022-11-22T02:47:54.057Z,-2.60
2022-11-22T02:52:52.251Z,-2.60
2022-11-22T03:00:21.368Z,-2.60
2022-11-22T03:02:52.239Z,-2.60
2022-11-22T03:10:20.366Z,-2.70
2022-11-22T03:12:50.216Z,-2.30
2022-11-22T03:17:49.566Z,-2.50
2022-11-22T03:25:15.044Z,-2.30
2022-11-22T03:27:44.417Z,-2.50
2022-11-22T03:35:09.630Z,-2.10
2022-11-22T03:40:07.838Z,-2.60
2022-11-22T03:42:36.467Z,-2.50
2022-11-22T03:47:38.625Z,-2.40
2022-11-22T03:50:08.115Z,-2.40
2022-11-22T04:15:00.651Z,-1.90
2022-11-22T04:20:33.391Z,-2.30
2022-11-22T04:23:04.063Z,-2.30
2022-11-22T04:25:33.488Z,-2.40
2022-11-22T04:30:45.023Z,-2.30
2022-11-22T04:45:47.282Z,-2.30
2022-11-22T04:50:59.011Z,-2.20
2022-11-22T05:08:19.378Z,-1.90
2022-11-22T05:11:04.600Z,-1.80
2022-11-22T05:13:35.387Z,-1.80
2022-11-22T05:16:04.926Z,-1.70
2022-11-22T05:21:06.610Z,-1.60
2022-11-22T05:23:49.954Z,-1.60
2022-11-22T05:31:17.098Z,-1.60
2022-11-22T05:33:46.791Z,-1.60
2022-11-22T05:41:12.782Z,-1.50
2022-11-22T05:46:11.966Z,-1.50
2022-11-22T05:48:41.135Z,-1.50
2022-11-22T05:51:11.066Z,-1.50
2022-11-22T05:53:39.503Z,-1.50
2022-11-22T05:56:10.072Z,-1.40
2022-11-22T06:01:10.560Z,-1.50
2022-11-22T06:03:38.806Z,-1.40
2022-11-22T06:06:07.278Z,-1.30
2022-11-22T06:08:36.533Z,-1.30
2022-11-22T06:11:08.723Z,-1.30
2022-11-22T06:13:37.975Z,-1.20
2022-11-22T06:16:06.876Z,-1.20
2022-11-22T06:21:05.128Z,-1.20
2022-11-22T06:23:32.885Z,-1.50
2022-11-22T06:26:03.035Z,-1.10
2022-11-22T06:28:31.586Z,-1.10
2022-11-22T06:31:05.710Z,-1.00
2022-11-22T06:36:12.105Z,-1.00
2022-11-22T06:38:40.996Z,-1.00
2022-11-22T06:41:11.049Z,-1.00
2022-11-22T06:43:45.133Z,-1.00
2022-11-22T06:51:17.054Z,-0.90
2022-11-22T06:53:47.841Z,-0.90
2022-11-22T06:56:22.294Z,-0.90
2022-11-22T06:58:51.379Z,-0.80
2022-11-22T07:01:22.582Z,-0.80
2022-11-22T07:03:51.166Z,-0.80
2022-11-22T07:06:19.448Z,-0.80
2022-11-22T07:11:19.597Z,-0.70
2022-11-22T07:13:48.211Z,-0.30
2022-11-22T07:16:18.624Z,-0.70
2022-11-22T07:21:20.539Z,-0.60
2022-11-22T07:23:49.970Z,-0.60
2022-11-22T07:26:22.051Z,-0.50
2022-11-22T07:28:50.051Z,-0.50
2022-11-22T07:31:18.355Z,-0.40
2022-11-22T07:36:16.479Z,-0.50
2022-11-22T07:41:12.177Z,-0.40
2022-11-22T07:46:15.989Z,-0.30
2022-11-22T07:56:07.780Z,-0.30
2022-11-22T07:58:35.948Z,-0.30
2022-11-22T08:01:09.189Z,-0.30
2022-11-22T08:06:07.410Z,-0.30
2022-11-22T08:08:36.046Z,-0.30
2022-11-22T08:11:04.962Z,-0.30
2022-11-22T08:13:33.817Z,-0.40
2022-11-22T08:16:06.224Z,-0.30
2022-11-22T08:18:35.344Z,-0.20
2022-11-22T08:21:08.521Z,-0.20
2022-11-22T08:23:36.396Z,-0.30
2022-11-22T08:31:05.324Z,-0.10
2022-11-22T08:45:59.085Z,0.20
2022-11-22T08:48:29.107Z,0.10
2022-11-22T08:51:01.403Z,-0.20
2022-11-22T08:53:30.969Z,0.10
2022-11-22T08:56:01.987Z,0.20
2022-11-22T08:58:32.667Z,0.20
2022-11-22T09:01:07.788Z,0.20
2022-11-22T09:03:38.317Z,0.10
2022-11-22T09:09:22.197Z,0.30
2022-11-22T09:11:49.166Z,-0.10
2022-11-22T09:14:19.833Z,-0.10
2022-11-22T09:16:50.564Z,0.70
2022-11-22T09:19:21.184Z,0.30
2022-11-22T09:21:51.785Z,0.40
2022-11-22T09:24:21.520Z,0.10
2022-11-22T09:26:51.038Z,0.30
2022-11-22T09:31:50.348Z,0.20
2022-11-22T09:42:05.662Z,0.40
2022-11-22T09:44:58.185Z,0.50
2022-11-22T09:47:39.696Z,0.50
2022-11-22T09:50:38.325Z,0.50
2022-11-22T09:53:21.241Z,0.50
2022-11-22T09:55:54.361Z,0.50
2022-11-22T09:58:44.553Z,0.60
2022-11-22T10:01:33.981Z,0.50
2022-11-22T10:04:18.122Z,0.50
2022-11-22T10:06:53.071Z,0.60
2022-11-22T10:09:42.547Z,0.60
2022-11-22T10:12:16.991Z,0.50
2022-11-22T10:14:59.076Z,0.50
2022-11-22T10:17:52.935Z,0.60
2022-11-22T10:20:23.029Z,0.60
2022-11-22T10:22:50.995Z,0.70
2022-11-22T10:25:24.070Z,0.60
2022-11-22T10:28:01.146Z,0.60
2022-11-22T10:30:38.999Z,0.70
2022-11-22T10:33:18.851Z,1.10
2022-11-22T10:36:10.032Z,0.70
2022-11-22T10:38:56.728Z,0.80
2022-11-22T10:41:51.585Z,0.70
2022-11-22T10:44:37.816Z,0.70
2022-11-22T10:47:34.483Z,0.80
2022-11-22T10:50:14.499Z,0.70
2022-11-22T10:53:00.974Z,0.80
2022-11-22T10:55:59.255Z,0.80
2022-11-22T10:58:57.448Z,0.70
2022-11-22T11:01:43.563Z,0.70
2022-11-22T11:04:13.708Z,0.80
2022-11-22T11:10:10.373Z,0.90
2022-11-22T11:12:46.343Z,0.90
2022-11-22T11:15:22.090Z,0.90
2022-11-22T11:17:59.239Z,0.90
2022-11-22T11:20:31.838Z,0.80
2022-11-22T11:25:45.227Z,0.80
2022-11-22T11:28:23.943Z,0.80
2022-11-22T11:30:55.577Z,0.70
2022-11-22T11:33:32.033Z,0.80
2022-11-22T11:36:24.294Z,0.80
2022-11-22T11:38:57.028Z,0.80
2022-11-22T11:41:40.320Z,0.40
2022-11-22T11:44:29.449Z,0.80
2022-11-22T11:49:28.841Z,0.80
2022-11-22T11:52:00.195Z,0.80
2022-11-22T11:54:44.334Z,0.80
2022-11-22T11:57:21.968Z,0.80
2022-11-22T11:59:51.679Z,0.90
2022-11-22T12:02:25.911Z,0.70
2022-11-22T12:04:58.188Z,0.90
2022-11-22T12:07:28.749Z,0.90
2022-11-22T12:09:56.826Z,0.80
2022-11-22T12:12:44.624Z,0.90
2022-11-22T12:15:22.297Z,0.90
2022-11-22T12:17:56.466Z,0.90
2022-11-22T12:20:42.463Z,0.90
2022-11-22T12:23:31.217Z,0.90
2022-11-22T12:31:14.760Z,1.00
2022-11-22T12:33:47.741Z,0.90
2022-11-22T12:36:41.458Z,0.90
2022-11-22T12:39:15.057Z,0.90
2022-11-22T12:41:45.265Z,1.10
2022-11-22T12:44:18.901Z,1.00
2022-11-22T12:46:54.853Z,1.00
2022-11-22T12:49:37.863Z,1.00
2022-11-22T12:52:29.945Z,1.10
2022-11-22T12:55:09.307Z,0.50
2022-11-22T12:57:45.397Z,0.90
2022-11-22T13:00:17.697Z,0.90
2022-11-22T13:03:01.735Z,0.80
2022-11-22T13:05:53.052Z,0.90
2022-11-22T13:08:37.531Z,1.00
2022-11-22T13:11:18.641Z,1.00
2022-11-22T13:13:50.933Z,0.90
2022-11-22T13:19:04.732Z,0.80
2022-11-22T13:22:03.039Z,1.00
2022-11-22T13:24:53.881Z,1.00
2022-11-22T13:27:29.465Z,1.00
2022-11-22T13:30:00.332Z,1.00
2022-11-22T13:32:33.210Z,1.00
2022-11-22T13:35:22.444Z,1.00
2022-11-22T13:37:53.311Z,1.00
2022-11-22T13:40:26.980Z,1.00
2022-11-22T13:43:26.265Z,1.00
2022-11-22T13:46:05.217Z,1.00
2022-11-22T13:49:11.433Z,1.00
2022-11-22T13:51:56.844Z,1.00
2022-11-22T13:54:43.246Z,0.50
2022-11-22T13:57:31.109Z,1.00
2022-11-22T14:00:34.257Z,1.00
2022-11-22T14:03:23.085Z,1.40
2022-11-22T14:05:55.164Z,1.00
2022-11-22T14:08:42.465Z,1.00
2022-11-22T14:11:31.382Z,0.90
2022-11-22T14:14:15.909Z,1.00
2022-11-22T14:17:02.292Z,1.00
2022-11-22T14:20:01.176Z,1.00
2022-11-22T14:23:00.580Z,1.00
2022-11-22T14:25:51.992Z,0.80
2022-11-22T14:28:54.761Z,1.00
2022-11-22T14:31:28.703Z,1.00
2022-11-22T14:34:21.200Z,1.00
2022-11-22T14:37:24.177Z,0.90
2022-11-22T14:40:03.293Z,1.00
2022-11-22T14:42:48.163Z,1.00
2022-11-22T14:45:23.495Z,1.00
2022-11-22T14:48:14.818Z,1.00
2022-11-22T14:50:45.909Z,0.90
2022-11-22T14:53:32.306Z,1.00
2022-11-22T14:56:17.767Z,1.00
2022-11-22T14:59:20.204Z,1.00
2022-11-22T15:02:14.118Z,1.00
2022-11-22T15:09:11.238Z,1.00
2022-11-22T15:09:18.601Z,0.90
2022-11-22T15:11:40.251Z,1.00
2022-11-22T15:14:40.050Z,1.30
2022-11-22T15:57:36.925Z,1.10
2022-11-22T16:00:21.625Z,1.10
2022-11-22T16:02:52.069Z,1.10
2022-11-22T16:06:09.766Z,1.20
2022-11-22T16:13:33.263Z,1.10
2022-11-22T16:16:19.039Z,1.10
2022-11-22T16:21:29.122Z,1.10
2022-11-22T16:24:17.888Z,1.30
2022-11-22T16:27:02.450Z,1.20
2022-11-22T16:29:33.509Z,1.20
2022-11-22T16:32:10.478Z,1.20
2022-11-22T16:37:37.525Z,1.20
2022-11-22T16:42:39.876Z,1.60
2022-11-22T16:45:19.491Z,1.20
2022-11-22T17:08:04.000Z,1.20
2022-11-22T17:23:16.643Z,1.20
2022-11-22T17:33:17.031Z,1.20
2022-11-22T17:38:20.794Z,1.40
2022-11-22T17:50:44.322Z,1.20
2022-11-22T18:01:10.180Z,1.20
2022-11-22T18:06:12.873Z,1.10
2022-11-22T18:11:17.471Z,1.20
2022-11-22T18:16:19.272Z,1.20
2022-11-22T18:21:27.142Z,1.30
2022-11-22T18:26:43.140Z,1.20
2022-11-22T18:32:02.548Z,1.00
2022-11-22T18:34:30.875Z,1.20
2022-11-22T18:39:35.147Z,1.20
2022-11-22T18:42:08.661Z,1.20
2022-11-22T18:44:36.713Z,1.40
2022-11-22T18:57:17.539Z,1.00
2022-11-22T19:04:56.603Z,1.20
2022-11-22T19:07:29.727Z,0.80
2022-11-22T19:10:09.088Z,1.20
2022-11-22T19:15:12.337Z,1.20
2022-11-22T19:17:40.691Z,0.80
2022-11-22T19:20:32.430Z,1.20
2022-11-22T19:25:47.312Z,1.20
2022-11-22T19:30:53.592Z,1.10
2022-11-22T19:33:25.061Z,1.20
2022-11-22T19:36:02.946Z,1.20
2022-11-22T19:43:28.989Z,1.30
2022-11-22T19:46:02.639Z,1.30
2022-11-22T19:48:46.678Z,1.30
2022-11-22T19:51:20.343Z,1.30
2022-11-22T19:54:02.177Z,1.30
2022-11-22T19:56:35.847Z,1.40
2022-11-22T19:59:17.955Z,1.30
2022-11-22T20:01:47.031Z,1.10
2022-11-22T20:04:16.223Z,1.40
2022-11-22T20:09:27.484Z,1.40
2022-11-22T20:27:09.783Z,1.60
2022-11-22T20:34:41.829Z,1.50
2022-11-22T20:37:12.055Z,1.40
2022-11-22T20:39:53.163Z,1.40
2022-11-22T20:45:11.696Z,1.30
2022-11-22T20:47:42.360Z,1.80
2022-11-22T20:57:41.031Z,1.60
2022-11-22T21:00:23.811Z,1.40
2022-11-22T21:08:05.223Z,1.80
2022-11-22T21:18:26.771Z,1.10
2022-11-22T21:28:21.460Z,1.40
2022-11-22T21:30:57.288Z,1.40
2022-11-22T21:33:25.867Z,1.40
2022-11-22T21:38:32.636Z,1.40
2022-11-22T21:41:24.225Z,1.40
2022-11-22T21:43:58.767Z,1.40
2022-11-22T21:49:02.701Z,1.90
2022-11-22T21:54:07.847Z,1.40
2022-11-22T22:04:08.650Z,1.50
2022-11-22T22:19:09.430Z,1.40
2022-11-22T22:24:07.650Z,1.60
2022-11-22T22:38:57.197Z,1.40
2022-11-22T22:43:58.701Z,1.50
2022-11-22T22:56:31.393Z,1.40
2022-11-22T22:59:01.215Z,1.50
2022-11-22T23:01:36.345Z,1.50
2022-11-22T23:06:34.715Z,1.50
2022-11-22T23:09:05.830Z,1.60
2022-11-22T23:14:25.336Z,1.40
2022-11-22T23:16:58.605Z,1.50
2022-11-22T23:19:27.815Z,1.40
2022-11-22T23:21:55.895Z,1.40
2022-11-22T23:24:34.506Z,1.50
2022-11-22T23:29:30.407Z,1.50
